sensor_id;sensor_type;location;lat;lon;timestamp;P1;durP1;ratioP1;P2;durP2;ratioP2
19189;SDS011;9727;50.200;19.038;2023-04-16T00:01:52;28.43;;;16.87;;
19189;SDS011;9727;50.200;19.038;2023-04-16T00:04:22;29.43;;;17.63;;
19189;SDS011;9727;50.200;19.038;2023-04-16T00:06:50;29.37;;;16.83;;
19189;SDS011;9727;50.200;19.038;2023-04-16T00:09:16;29.80;;;17.27;;
19189;SDS011;9727;50.200;19.038;2023-04-16T00:11:44;30.53;;;17.97;;
19189;SDS011;9727;50.200;19.038;2023-04-16T00:14:12;34.93;;;19.30;;
19189;SDS011;9727;50.200;19.038;2023-04-16T00:16:38;30.87;;;18.53;;
19189;SDS011;9727;50.200;19.038;2023-04-16T00:19:05;28.97;;;19.17;;
19189;SDS011;9727;50.200;19.038;2023-04-16T00:21:31;32.77;;;18.93;;
19189;SDS011;9727;50.200;19.038;2023-04-16T00:23:59;31.37;;;19.67;;
19189;SDS011;9727;50.200;19.038;2023-04-16T00:26:26;31.13;;;19.97;;
19189;SDS011;9727;50.200;19.038;2023-04-16T00:28:53;33.90;;;20.17;;
19189;SDS011;9727;50.200;19.038;2023-04-16T00:31:25;34.20;;;21.47;;
19189;SDS011;9727;50.200;19.038;2023-04-16T00:33:51;34.60;;;21.73;;
19189;SDS011;9727;50.200;19.038;2023-04-16T00:36:21;35.00;;;22.40;;
19189;SDS011;9727;50.200;19.038;2023-04-16T00:38:48;36.23;;;23.57;;
19189;SDS011;9727;50.200;19.038;2023-04-16T00:41:16;40.57;;;23.43;;
19189;SDS011;9727;50.200;19.038;2023-04-16T00:43:44;41.10;;;25.03;;
19189;SDS011;9727;50.200;19.038;2023-04-16T00:46:11;38.30;;;23.37;;
19189;SDS011;9727;50.200;19.038;2023-04-16T00:48:38;44.97;;;25.00;;
19189;SDS011;9727;50.200;19.038;2023-04-16T00:51:06;39.67;;;25.03;;
19189;SDS011;9727;50.200;19.038;2023-04-16T00:53:32;39.93;;;24.70;;
19189;SDS011;9727;50.200;19.038;2023-04-16T00:55:59;42.40;;;25.03;;
19189;SDS011;9727;50.200;19.038;2023-04-16T00:58:29;41.40;;;24.43;;
19189;SDS011;9727;50.200;19.038;2023-04-16T01:00:55;38.93;;;23.53;;
19189;SDS011;9727;50.200;19.038;2023-04-16T01:03:22;41.53;;;24.97;;
19189;SDS011;9727;50.200;19.038;2023-04-16T01:05:49;38.73;;;24.27;;
19189;SDS011;9727;50.200;19.038;2023-04-16T01:08:16;38.97;;;23.23;;
19189;SDS011;9727;50.200;19.038;2023-04-16T01:10:49;40.43;;;24.47;;
19189;SDS011;9727;50.200;19.038;2023-04-16T01:13:15;39.23;;;23.23;;
19189;SDS011;9727;50.200;19.038;2023-04-16T01:15:43;37.43;;;23.07;;
19189;SDS011;9727;50.200;19.038;2023-04-16T01:18:13;37.47;;;23.37;;
19189;SDS011;9727;50.200;19.038;2023-04-16T01:20:41;39.50;;;23.17;;
19189;SDS011;9727;50.200;19.038;2023-04-16T01:23:08;39.40;;;23.33;;
19189;SDS011;9727;50.200;19.038;2023-04-16T01:25:35;36.87;;;22.03;;
19189;SDS011;9727;50.200;19.038;2023-04-16T01:28:02;34.63;;;21.33;;
19189;SDS011;9727;50.200;19.038;2023-04-16T01:30:28;33.63;;;20.23;;
19189;SDS011;9727;50.200;19.038;2023-04-16T01:33:01;29.87;;;18.83;;
19189;SDS011;9727;50.200;19.038;2023-04-16T01:35:27;32.70;;;20.90;;
19189;SDS011;9727;50.200;19.038;2023-04-16T01:37:55;37.93;;;24.23;;
19189;SDS011;9727;50.200;19.038;2023-04-16T01:40:22;48.60;;;27.60;;
19189;SDS011;9727;50.200;19.038;2023-04-16T01:42:49;41.87;;;25.43;;
19189;SDS011;9727;50.200;19.038;2023-04-16T01:45:16;45.97;;;27.40;;
19189;SDS011;9727;50.200;19.038;2023-04-16T01:47:42;46.37;;;27.03;;
19189;SDS011;9727;50.200;19.038;2023-04-16T01:50:09;44.47;;;27.00;;
19189;SDS011;9727;50.200;19.038;2023-04-16T01:52:36;45.30;;;27.97;;
19189;SDS011;9727;50.200;19.038;2023-04-16T01:55:05;49.23;;;27.73;;
19189;SDS011;9727;50.200;19.038;2023-04-16T01:57:31;43.40;;;26.10;;
19189;SDS011;9727;50.200;19.038;2023-04-16T01:59:58;43.30;;;26.13;;
19189;SDS011;9727;50.200;19.038;2023-04-16T02:02:26;43.63;;;26.40;;
19189;SDS011;9727;50.200;19.038;2023-04-16T02:04:53;47.87;;;26.90;;
19189;SDS011;9727;50.200;19.038;2023-04-16T02:07:20;45.07;;;26.40;;
19189;SDS011;9727;50.200;19.038;2023-04-16T02:09:50;38.43;;;25.40;;
19189;SDS011;9727;50.200;19.038;2023-04-16T02:12:20;42.73;;;24.73;;
19189;SDS011;9727;50.200;19.038;2023-04-16T02:14:47;40.67;;;23.77;;
19189;SDS011;9727;50.200;19.038;2023-04-16T02:17:14;42.57;;;23.97;;
19189;SDS011;9727;50.200;19.038;2023-04-16T02:19:41;41.83;;;23.53;;
19189;SDS011;9727;50.200;19.038;2023-04-16T02:22:07;41.73;;;23.93;;
19189;SDS011;9727;50.200;19.038;2023-04-16T02:24:34;40.00;;;24.20;;
19189;SDS011;9727;50.200;19.038;2023-04-16T02:27:00;38.90;;;24.60;;
19189;SDS011;9727;50.200;19.038;2023-04-16T02:29:29;39.63;;;23.57;;
19189;SDS011;9727;50.200;19.038;2023-04-16T02:31:56;42.87;;;24.40;;
19189;SDS011;9727;50.200;19.038;2023-04-16T02:34:23;41.17;;;25.30;;
19189;SDS011;9727;50.200;19.038;2023-04-16T02:36:50;42.97;;;25.63;;
19189;SDS011;9727;50.200;19.038;2023-04-16T02:39:16;41.57;;;25.23;;
19189;SDS011;9727;50.200;19.038;2023-04-16T02:41:47;48.20;;;27.17;;
19189;SDS011;9727;50.200;19.038;2023-04-16T02:44:14;43.60;;;25.93;;
19189;SDS011;9727;50.200;19.038;2023-04-16T02:46:41;44.50;;;25.97;;
19189;SDS011;9727;50.200;19.038;2023-04-16T02:49:08;44.73;;;26.30;;
19189;SDS011;9727;50.200;19.038;2023-04-16T02:51:34;42.27;;;25.43;;
19189;SDS011;9727;50.200;19.038;2023-04-16T02:54:01;42.97;;;25.40;;
19189;SDS011;9727;50.200;19.038;2023-04-16T02:56:28;45.50;;;26.67;;
19189;SDS011;9727;50.200;19.038;2023-04-16T02:58:55;40.73;;;26.00;;
19189;SDS011;9727;50.200;19.038;2023-04-16T03:01:21;46.30;;;26.80;;
19189;SDS011;9727;50.200;19.038;2023-04-16T03:03:49;40.67;;;26.43;;
19189;SDS011;9727;50.200;19.038;2023-04-16T03:06:16;43.33;;;25.93;;
19189;SDS011;9727;50.200;19.038;2023-04-16T03:08:42;43.87;;;26.97;;
19189;SDS011;9727;50.200;19.038;2023-04-16T03:11:09;46.27;;;28.93;;
19189;SDS011;9727;50.200;19.038;2023-04-16T03:13:35;48.10;;;28.47;;
19189;SDS011;9727;50.200;19.038;2023-04-16T03:16:02;47.23;;;28.30;;
19189;SDS011;9727;50.200;19.038;2023-04-16T03:18:28;53.60;;;29.93;;
19189;SDS011;9727;50.200;19.038;2023-04-16T03:20:56;50.03;;;31.07;;
19189;SDS011;9727;50.200;19.038;2023-04-16T03:23:23;57.70;;;32.03;;
19189;SDS011;9727;50.200;19.038;2023-04-16T03:25:49;58.17;;;32.23;;
19189;SDS011;9727;50.200;19.038;2023-04-16T03:28:16;56.43;;;32.03;;
19189;SDS011;9727;50.200;19.038;2023-04-16T03:30:48;58.80;;;32.77;;
19189;SDS011;9727;50.200;19.038;2023-04-16T03:33:15;61.93;;;31.70;;
19189;SDS011;9727;50.200;19.038;2023-04-16T03:35:42;52.20;;;29.70;;
19189;SDS011;9727;50.200;19.038;2023-04-16T03:38:10;49.83;;;28.30;;
19189;SDS011;9727;50.200;19.038;2023-04-16T03:40:36;50.73;;;28.30;;
19189;SDS011;9727;50.200;19.038;2023-04-16T03:43:04;48.77;;;27.17;;
19189;SDS011;9727;50.200;19.038;2023-04-16T03:45:30;49.03;;;26.27;;
19189;SDS011;9727;50.200;19.038;2023-04-16T03:47:57;44.23;;;24.73;;
19189;SDS011;9727;50.200;19.038;2023-04-16T03:50:23;45.33;;;24.43;;
19189;SDS011;9727;50.200;19.038;2023-04-16T03:52:50;51.70;;;25.63;;
19189;SDS011;9727;50.200;19.038;2023-04-16T03:55:20;43.47;;;24.83;;
19189;SDS011;9727;50.200;19.038;2023-04-16T03:57:47;46.37;;;25.37;;
19189;SDS011;9727;50.200;19.038;2023-04-16T04:00:13;52.00;;;25.53;;
19189;SDS011;9727;50.200;19.038;2023-04-16T04:02:40;48.03;;;25.97;;
19189;SDS011;9727;50.200;19.038;2023-04-16T04:05:07;44.70;;;25.23;;
19189;SDS011;9727;50.200;19.038;2023-04-16T04:07:33;47.43;;;24.90;;
19189;SDS011;9727;50.200;19.038;2023-04-16T04:10:00;47.63;;;25.67;;
19189;SDS011;9727;50.200;19.038;2023-04-16T04:12:28;47.07;;;25.57;;
19189;SDS011;9727;50.200;19.038;2023-04-16T04:14:55;46.60;;;25.87;;
19189;SDS011;9727;50.200;19.038;2023-04-16T04:17:22;48.13;;;26.40;;
19189;SDS011;9727;50.200;19.038;2023-04-16T04:19:48;50.17;;;27.00;;
19189;SDS011;9727;50.200;19.038;2023-04-16T04:22:16;56.03;;;28.23;;
19189;SDS011;9727;50.200;19.038;2023-04-16T04:24:43;52.83;;;28.27;;
19189;SDS011;9727;50.200;19.038;2023-04-16T04:27:09;56.60;;;28.27;;
19189;SDS011;9727;50.200;19.038;2023-04-16T04:29:37;56.20;;;29.40;;
19189;SDS011;9727;50.200;19.038;2023-04-16T04:32:04;64.07;;;30.70;;
19189;SDS011;9727;50.200;19.038;2023-04-16T04:34:30;59.20;;;29.57;;
19189;SDS011;9727;50.200;19.038;2023-04-16T04:36:57;64.83;;;31.23;;
19189;SDS011;9727;50.200;19.038;2023-04-16T04:39:24;57.80;;;31.23;;
19189;SDS011;9727;50.200;19.038;2023-04-16T04:41:51;65.27;;;31.70;;
19189;SDS011;9727;50.200;19.038;2023-04-16T04:44:17;62.90;;;31.57;;
19189;SDS011;9727;50.200;19.038;2023-04-16T04:46:49;63.93;;;32.90;;
19189;SDS011;9727;50.200;19.038;2023-04-16T04:49:15;58.00;;;30.77;;
19189;SDS011;9727;50.200;19.038;2023-04-16T04:51:49;58.13;;;31.30;;
19189;SDS011;9727;50.200;19.038;2023-04-16T04:54:15;54.97;;;30.70;;
19189;SDS011;9727;50.200;19.038;2023-04-16T04:56:42;59.27;;;30.80;;
19189;SDS011;9727;50.200;19.038;2023-04-16T04:59:10;57.97;;;31.10;;
19189;SDS011;9727;50.200;19.038;2023-04-16T05:01:36;58.90;;;30.20;;
19189;SDS011;9727;50.200;19.038;2023-04-16T05:04:05;61.17;;;31.30;;
19189;SDS011;9727;50.200;19.038;2023-04-16T05:06:31;59.67;;;30.20;;
19189;SDS011;9727;50.200;19.038;2023-04-16T05:08:58;57.23;;;29.83;;
19189;SDS011;9727;50.200;19.038;2023-04-16T05:11:25;59.90;;;31.53;;
19189;SDS011;9727;50.200;19.038;2023-04-16T05:13:51;60.30;;;32.20;;
19189;SDS011;9727;50.200;19.038;2023-04-16T05:16:22;58.67;;;30.20;;
19189;SDS011;9727;50.200;19.038;2023-04-16T05:18:49;59.07;;;32.33;;
19189;SDS011;9727;50.200;19.038;2023-04-16T05:21:17;56.17;;;31.37;;
19189;SDS011;9727;50.200;19.038;2023-04-16T05:23:49;60.20;;;32.03;;
19189;SDS011;9727;50.200;19.038;2023-04-16T05:26:15;57.97;;;30.83;;
19189;SDS011;9727;50.200;19.038;2023-04-16T05:28:42;57.03;;;29.70;;
19189;SDS011;9727;50.200;19.038;2023-04-16T05:31:08;53.97;;;30.53;;
19189;SDS011;9727;50.200;19.038;2023-04-16T05:33:35;51.87;;;28.30;;
19189;SDS011;9727;50.200;19.038;2023-04-16T05:36:02;51.03;;;28.00;;
19189;SDS011;9727;50.200;19.038;2023-04-16T05:38:30;52.93;;;28.37;;
19189;SDS011;9727;50.200;19.038;2023-04-16T05:40:56;47.73;;;26.63;;
19189;SDS011;9727;50.200;19.038;2023-04-16T05:43:23;42.37;;;24.43;;
19189;SDS011;9727;50.200;19.038;2023-04-16T05:45:50;40.80;;;24.30;;
19189;SDS011;9727;50.200;19.038;2023-04-16T05:48:16;44.47;;;24.53;;
19189;SDS011;9727;50.200;19.038;2023-04-16T05:50:50;43.20;;;24.33;;
19189;SDS011;9727;50.200;19.038;2023-04-16T05:53:16;36.07;;;22.00;;
19189;SDS011;9727;50.200;19.038;2023-04-16T05:55:51;39.90;;;23.20;;
19189;SDS011;9727;50.200;19.038;2023-04-16T05:58:17;38.37;;;21.53;;
19189;SDS011;9727;50.200;19.038;2023-04-16T06:00:47;42.67;;;22.97;;
19189;SDS011;9727;50.200;19.038;2023-04-16T06:03:14;36.50;;;21.90;;
19189;SDS011;9727;50.200;19.038;2023-04-16T06:05:41;33.03;;;20.30;;
19189;SDS011;9727;50.200;19.038;2023-04-16T06:08:10;31.83;;;19.67;;
19189;SDS011;9727;50.200;19.038;2023-04-16T06:10:56;30.07;;;20.33;;
19189;SDS011;9727;50.200;19.038;2023-04-16T06:13:25;33.57;;;20.37;;
19189;SDS011;9727;50.200;19.038;2023-04-16T06:15:54;29.57;;;20.53;;
19189;SDS011;9727;50.200;19.038;2023-04-16T06:18:21;28.97;;;19.80;;
19189;SDS011;9727;50.200;19.038;2023-04-16T06:20:47;30.63;;;20.03;;
19189;SDS011;9727;50.200;19.038;2023-04-16T06:23:14;29.13;;;18.90;;
19189;SDS011;9727;50.200;19.038;2023-04-16T06:25:40;28.07;;;18.47;;
19189;SDS011;9727;50.200;19.038;2023-04-16T06:28:08;26.17;;;17.63;;
19189;SDS011;9727;50.200;19.038;2023-04-16T06:30:35;25.90;;;17.10;;
19189;SDS011;9727;50.200;19.038;2023-04-16T06:33:14;26.27;;;17.57;;
19189;SDS011;9727;50.200;19.038;2023-04-16T06:35:41;45.83;;;26.43;;
19189;SDS011;9727;50.200;19.038;2023-04-16T06:38:07;45.00;;;26.53;;
19189;SDS011;9727;50.200;19.038;2023-04-16T06:40:35;43.93;;;27.13;;
19189;SDS011;9727;50.200;19.038;2023-04-16T06:43:02;48.50;;;28.80;;
19189;SDS011;9727;50.200;19.038;2023-04-16T06:45:30;54.30;;;31.37;;
19189;SDS011;9727;50.200;19.038;2023-04-16T06:47:57;49.23;;;30.40;;
19189;SDS011;9727;50.200;19.038;2023-04-16T06:50:26;49.73;;;30.10;;
19189;SDS011;9727;50.200;19.038;2023-04-16T06:52:56;54.33;;;33.53;;
19189;SDS011;9727;50.200;19.038;2023-04-16T06:55:22;51.87;;;32.67;;
19189;SDS011;9727;50.200;19.038;2023-04-16T06:57:49;46.87;;;30.17;;
19189;SDS011;9727;50.200;19.038;2023-04-16T07:00:16;45.27;;;28.67;;
19189;SDS011;9727;50.200;19.038;2023-04-16T07:02:44;43.90;;;27.47;;
19189;SDS011;9727;50.200;19.038;2023-04-16T07:05:10;40.07;;;25.10;;
19189;SDS011;9727;50.200;19.038;2023-04-16T07:07:38;41.57;;;26.20;;
19189;SDS011;9727;50.200;19.038;2023-04-16T07:10:05;36.90;;;24.03;;
19189;SDS011;9727;50.200;19.038;2023-04-16T07:12:32;50.00;;;27.00;;
19189;SDS011;9727;50.200;19.038;2023-04-16T07:14:59;37.47;;;23.10;;
19189;SDS011;9727;50.200;19.038;2023-04-16T07:17:25;36.20;;;22.63;;
19189;SDS011;9727;50.200;19.038;2023-04-16T07:20:08;31.60;;;21.13;;
19189;SDS011;9727;50.200;19.038;2023-04-16T07:22:35;33.73;;;20.37;;
19189;SDS011;9727;50.200;19.038;2023-04-16T07:25:01;33.37;;;20.63;;
19189;SDS011;9727;50.200;19.038;2023-04-16T07:27:28;35.73;;;22.33;;
19189;SDS011;9727;50.200;19.038;2023-04-16T07:29:55;33.07;;;21.07;;
19189;SDS011;9727;50.200;19.038;2023-04-16T07:32:21;27.13;;;18.50;;
19189;SDS011;9727;50.200;19.038;2023-04-16T07:34:48;30.23;;;19.33;;
19189;SDS011;9727;50.200;19.038;2023-04-16T07:37:16;29.23;;;18.67;;
19189;SDS011;9727;50.200;19.038;2023-04-16T07:39:43;27.87;;;18.10;;
19189;SDS011;9727;50.200;19.038;2023-04-16T07:42:15;29.93;;;18.87;;
19189;SDS011;9727;50.200;19.038;2023-04-16T07:44:42;21.50;;;16.07;;
19189;SDS011;9727;50.200;19.038;2023-04-16T07:47:09;22.47;;;16.27;;
19189;SDS011;9727;50.200;19.038;2023-04-16T07:49:35;31.37;;;19.03;;
19189;SDS011;9727;50.200;19.038;2023-04-16T07:52:02;28.57;;;18.80;;
19189;SDS011;9727;50.200;19.038;2023-04-16T07:54:30;22.80;;;15.17;;
19189;SDS011;9727;50.200;19.038;2023-04-16T07:56:57;21.40;;;14.00;;
19189;SDS011;9727;50.200;19.038;2023-04-16T07:59:23;18.00;;;13.87;;
19189;SDS011;9727;50.200;19.038;2023-04-16T08:01:51;21.90;;;15.10;;
19189;SDS011;9727;50.200;19.038;2023-04-16T08:04:19;19.10;;;13.80;;
19189;SDS011;9727;50.200;19.038;2023-04-16T08:06:48;16.07;;;12.37;;
19189;SDS011;9727;50.200;19.038;2023-04-16T08:09:15;17.20;;;12.43;;
19189;SDS011;9727;50.200;19.038;2023-04-16T08:11:43;19.47;;;11.60;;
19189;SDS011;9727;50.200;19.038;2023-04-16T08:14:10;15.73;;;12.20;;
19189;SDS011;9727;50.200;19.038;2023-04-16T08:16:36;16.60;;;11.90;;
19189;SDS011;9727;50.200;19.038;2023-04-16T08:19:04;16.17;;;11.17;;
19189;SDS011;9727;50.200;19.038;2023-04-16T08:21:31;14.53;;;10.57;;
19189;SDS011;9727;50.200;19.038;2023-04-16T08:23:58;12.20;;;9.63;;
19189;SDS011;9727;50.200;19.038;2023-04-16T08:26:24;11.63;;;9.00;;
19189;SDS011;9727;50.200;19.038;2023-04-16T08:28:52;12.37;;;9.90;;
19189;SDS011;9727;50.200;19.038;2023-04-16T08:31:19;13.13;;;9.20;;
19189;SDS011;9727;50.200;19.038;2023-04-16T08:33:49;14.20;;;9.90;;
19189;SDS011;9727;50.200;19.038;2023-04-16T08:36:15;13.30;;;8.87;;
19189;SDS011;9727;50.200;19.038;2023-04-16T08:38:42;14.93;;;10.30;;
19189;SDS011;9727;50.200;19.038;2023-04-16T08:41:10;12.43;;;9.23;;
19189;SDS011;9727;50.200;19.038;2023-04-16T08:43:37;12.53;;;9.77;;
19189;SDS011;9727;50.200;19.038;2023-04-16T08:46:08;12.80;;;9.27;;
19189;SDS011;9727;50.200;19.038;2023-04-16T08:48:36;12.47;;;9.80;;
19189;SDS011;9727;50.200;19.038;2023-04-16T08:51:03;12.23;;;9.47;;
19189;SDS011;9727;50.200;19.038;2023-04-16T08:53:32;12.70;;;8.37;;
19189;SDS011;9727;50.200;19.038;2023-04-16T08:56:02;12.27;;;8.83;;
19189;SDS011;9727;50.200;19.038;2023-04-16T08:58:30;13.10;;;9.10;;
19189;SDS011;9727;50.200;19.038;2023-04-16T09:00:59;11.00;;;8.00;;
19189;SDS011;9727;50.200;19.038;2023-04-16T09:03:31;13.10;;;8.83;;
19189;SDS011;9727;50.200;19.038;2023-04-16T09:05:57;14.23;;;10.30;;
19189;SDS011;9727;50.200;19.038;2023-04-16T09:08:25;14.33;;;9.50;;
19189;SDS011;9727;50.200;19.038;2023-04-16T09:10:52;10.47;;;7.97;;
19189;SDS011;9727;50.200;19.038;2023-04-16T09:13:22;10.37;;;7.90;;
19189;SDS011;9727;50.200;19.038;2023-04-16T09:15:50;12.10;;;9.13;;
19189;SDS011;9727;50.200;19.038;2023-04-16T09:18:19;11.90;;;8.83;;
19189;SDS011;9727;50.200;19.038;2023-04-16T09:20:50;11.63;;;8.90;;
19189;SDS011;9727;50.200;19.038;2023-04-16T09:23:17;10.53;;;8.60;;
19189;SDS011;9727;50.200;19.038;2023-04-16T09:25:49;11.30;;;9.10;;
19189;SDS011;9727;50.200;19.038;2023-04-16T09:31:06;12.63;;;8.97;;
19189;SDS011;9727;50.200;19.038;2023-04-16T09:33:32;11.33;;;8.67;;
19189;SDS011;9727;50.200;19.038;2023-04-16T09:36:01;9.20;;;8.00;;
19189;SDS011;9727;50.200;19.038;2023-04-16T09:38:32;6.77;;;5.63;;
19189;SDS011;9727;50.200;19.038;2023-04-16T09:41:10;7.33;;;5.77;;
19189;SDS011;9727;50.200;19.038;2023-04-16T09:43:37;7.93;;;5.90;;
19189;SDS011;9727;50.200;19.038;2023-04-16T09:46:04;6.13;;;5.17;;
19189;SDS011;9727;50.200;19.038;2023-04-16T09:48:31;6.97;;;5.87;;
19189;SDS011;9727;50.200;19.038;2023-04-16T09:50:58;7.13;;;6.10;;
19189;SDS011;9727;50.200;19.038;2023-04-16T09:53:27;5.93;;;5.20;;
19189;SDS011;9727;50.200;19.038;2023-04-16T09:55:55;7.80;;;5.70;;
19189;SDS011;9727;50.200;19.038;2023-04-16T09:58:22;7.00;;;5.93;;
19189;SDS011;9727;50.200;19.038;2023-04-16T10:00:48;7.33;;;6.07;;
19189;SDS011;9727;50.200;19.038;2023-04-16T10:03:15;6.93;;;6.10;;
19189;SDS011;9727;50.200;19.038;2023-04-16T10:05:42;7.30;;;5.50;;
19189;SDS011;9727;50.200;19.038;2023-04-16T10:08:12;7.83;;;5.23;;
19189;SDS011;9727;50.200;19.038;2023-04-16T10:10:40;5.10;;;4.50;;
19189;SDS011;9727;50.200;19.038;2023-04-16T10:13:07;5.43;;;4.57;;
19189;SDS011;9727;50.200;19.038;2023-04-16T10:15:34;6.17;;;4.40;;
19189;SDS011;9727;50.200;19.038;2023-04-16T10:18:02;4.93;;;4.20;;
19189;SDS011;9727;50.200;19.038;2023-04-16T10:20:29;5.00;;;4.40;;
19189;SDS011;9727;50.200;19.038;2023-04-16T10:22:56;5.57;;;5.07;;
19189;SDS011;9727;50.200;19.038;2023-04-16T10:25:24;5.03;;;4.53;;
19189;SDS011;9727;50.200;19.038;2023-04-16T10:27:54;4.93;;;4.30;;
19189;SDS011;9727;50.200;19.038;2023-04-16T10:30:22;5.17;;;4.10;;
19189;SDS011;9727;50.200;19.038;2023-04-16T10:32:49;4.67;;;4.20;;
19189;SDS011;9727;50.200;19.038;2023-04-16T10:35:18;5.33;;;4.60;;
19189;SDS011;9727;50.200;19.038;2023-04-16T10:37:51;4.93;;;4.40;;
19189;SDS011;9727;50.200;19.038;2023-04-16T10:40:21;4.77;;;3.80;;
19189;SDS011;9727;50.200;19.038;2023-04-16T10:42:57;6.23;;;3.93;;
19189;SDS011;9727;50.200;19.038;2023-04-16T10:45:26;6.87;;;4.13;;
19189;SDS011;9727;50.200;19.038;2023-04-16T10:47:55;5.33;;;4.50;;
19189;SDS011;9727;50.200;19.038;2023-04-16T10:50:23;6.60;;;4.60;;
19189;SDS011;9727;50.200;19.038;2023-04-16T10:53:02;6.73;;;4.90;;
19189;SDS011;9727;50.200;19.038;2023-04-16T10:55:50;6.30;;;4.40;;
19189;SDS011;9727;50.200;19.038;2023-04-16T10:58:29;5.37;;;4.27;;
19189;SDS011;9727;50.200;19.038;2023-04-16T11:00:58;5.37;;;4.30;;
19189;SDS011;9727;50.200;19.038;2023-04-16T11:03:28;6.63;;;4.40;;
19189;SDS011;9727;50.200;19.038;2023-04-16T11:06:08;4.53;;;4.13;;
19189;SDS011;9727;50.200;19.038;2023-04-16T11:08:37;6.67;;;4.70;;
19189;SDS011;9727;50.200;19.038;2023-04-16T11:11:03;4.30;;;3.87;;
19189;SDS011;9727;50.200;19.038;2023-04-16T11:13:32;4.57;;;4.00;;
19189;SDS011;9727;50.200;19.038;2023-04-16T11:15:59;4.50;;;4.10;;
19189;SDS011;9727;50.200;19.038;2023-04-16T11:18:26;5.23;;;4.40;;
19189;SDS011;9727;50.200;19.038;2023-04-16T11:20:53;5.00;;;3.87;;
19189;SDS011;9727;50.200;19.038;2023-04-16T11:23:20;5.13;;;4.10;;
19189;SDS011;9727;50.200;19.038;2023-04-16T11:25:55;5.87;;;4.73;;
19189;SDS011;9727;50.200;19.038;2023-04-16T11:28:35;6.13;;;5.00;;
19189;SDS011;9727;50.200;19.038;2023-04-16T11:31:12;5.30;;;4.20;;
19189;SDS011;9727;50.200;19.038;2023-04-16T11:33:41;5.50;;;4.63;;
19189;SDS011;9727;50.200;19.038;2023-04-16T11:36:08;6.53;;;4.87;;
19189;SDS011;9727;50.200;19.038;2023-04-16T11:38:34;5.30;;;4.80;;
19189;SDS011;9727;50.200;19.038;2023-04-16T11:41:02;5.80;;;4.93;;
19189;SDS011;9727;50.200;19.038;2023-04-16T11:43:28;6.63;;;4.60;;
19189;SDS011;9727;50.200;19.038;2023-04-16T11:45:58;6.60;;;4.80;;
19189;SDS011;9727;50.200;19.038;2023-04-16T11:48:30;5.13;;;4.03;;
19189;SDS011;9727;50.200;19.038;2023-04-16T11:51:11;5.23;;;4.30;;
19189;SDS011;9727;50.200;19.038;2023-04-16T11:53:43;5.43;;;3.93;;
19189;SDS011;9727;50.200;19.038;2023-04-16T11:56:10;4.50;;;4.00;;
19189;SDS011;9727;50.200;19.038;2023-04-16T11:58:37;6.27;;;4.70;;
19189;SDS011;9727;50.200;19.038;2023-04-16T12:01:13;5.20;;;4.40;;
19189;SDS011;9727;50.200;19.038;2023-04-16T12:03:51;7.07;;;5.23;;
19189;SDS011;9727;50.200;19.038;2023-04-16T12:06:28;5.13;;;4.53;;
19189;SDS011;9727;50.200;19.038;2023-04-16T12:08:56;5.40;;;4.80;;
19189;SDS011;9727;50.200;19.038;2023-04-16T12:11:36;5.80;;;4.73;;
19189;SDS011;9727;50.200;19.038;2023-04-16T12:14:05;4.93;;;3.93;;
19189;SDS011;9727;50.200;19.038;2023-04-16T12:16:33;5.17;;;4.33;;
19189;SDS011;9727;50.200;19.038;2023-04-16T12:19:00;5.20;;;4.20;;
19189;SDS011;9727;50.200;19.038;2023-04-16T12:21:37;4.57;;;3.70;;
19189;SDS011;9727;50.200;19.038;2023-04-16T12:24:04;5.37;;;4.13;;
19189;SDS011;9727;50.200;19.038;2023-04-16T12:26:37;3.93;;;3.53;;
19189;SDS011;9727;50.200;19.038;2023-04-16T12:29:14;4.53;;;3.60;;
19189;SDS011;9727;50.200;19.038;2023-04-16T12:31:42;4.30;;;3.53;;
19189;SDS011;9727;50.200;19.038;2023-04-16T12:34:23;5.37;;;4.10;;
19189;SDS011;9727;50.200;19.038;2023-04-16T12:37:02;3.73;;;3.33;;
19189;SDS011;9727;50.200;19.038;2023-04-16T12:39:29;4.03;;;3.23;;
19189;SDS011;9727;50.200;19.038;2023-04-16T12:41:56;3.27;;;2.97;;
19189;SDS011;9727;50.200;19.038;2023-04-16T12:44:36;4.13;;;3.40;;
19189;SDS011;9727;50.200;19.038;2023-04-16T12:47:04;3.50;;;3.20;;
19189;SDS011;9727;50.200;19.038;2023-04-16T12:49:31;4.33;;;3.10;;
19189;SDS011;9727;50.200;19.038;2023-04-16T12:51:58;6.20;;;2.87;;
19189;SDS011;9727;50.200;19.038;2023-04-16T12:54:25;3.87;;;2.83;;
19189;SDS011;9727;50.200;19.038;2023-04-16T12:56:58;3.73;;;2.90;;
19189;SDS011;9727;50.200;19.038;2023-04-16T12:59:24;5.20;;;3.10;;
19189;SDS011;9727;50.200;19.038;2023-04-16T13:01:51;3.87;;;3.20;;
19189;SDS011;9727;50.200;19.038;2023-04-16T13:04:21;3.27;;;2.97;;
19189;SDS011;9727;50.200;19.038;2023-04-16T13:06:47;3.10;;;2.70;;
19189;SDS011;9727;50.200;19.038;2023-04-16T13:09:14;4.03;;;3.47;;
19189;SDS011;9727;50.200;19.038;2023-04-16T13:11:42;5.33;;;3.90;;
19189;SDS011;9727;50.200;19.038;2023-04-16T13:14:08;3.77;;;3.00;;
19189;SDS011;9727;50.200;19.038;2023-04-16T13:16:35;4.23;;;3.57;;
19189;SDS011;9727;50.200;19.038;2023-04-16T13:19:02;5.17;;;4.10;;
19189;SDS011;9727;50.200;19.038;2023-04-16T13:21:31;5.33;;;4.03;;
19189;SDS011;9727;50.200;19.038;2023-04-16T13:23:57;6.93;;;4.90;;
19189;SDS011;9727;50.200;19.038;2023-04-16T13:26:24;5.70;;;4.67;;
19189;SDS011;9727;50.200;19.038;2023-04-16T13:28:51;6.70;;;4.97;;
19189;SDS011;9727;50.200;19.038;2023-04-16T13:31:17;5.93;;;4.37;;
19189;SDS011;9727;50.200;19.038;2023-04-16T13:33:49;6.07;;;4.17;;
19189;SDS011;9727;50.200;19.038;2023-04-16T13:36:15;5.33;;;3.60;;
19189;SDS011;9727;50.200;19.038;2023-04-16T13:38:43;6.93;;;5.50;;
19189;SDS011;9727;50.200;19.038;2023-04-16T13:41:10;8.17;;;4.67;;
19189;SDS011;9727;50.200;19.038;2023-04-16T13:43:36;5.80;;;5.20;;
19189;SDS011;9727;50.200;19.038;2023-04-16T13:46:03;5.50;;;4.90;;
19189;SDS011;9727;50.200;19.038;2023-04-16T13:48:30;5.73;;;4.83;;
19189;SDS011;9727;50.200;19.038;2023-04-16T13:50:57;5.90;;;5.03;;
19189;SDS011;9727;50.200;19.038;2023-04-16T13:53:23;7.47;;;5.20;;
19189;SDS011;9727;50.200;19.038;2023-04-16T13:55:51;5.93;;;5.30;;
19189;SDS011;9727;50.200;19.038;2023-04-16T13:58:17;7.03;;;5.40;;
19189;SDS011;9727;50.200;19.038;2023-04-16T14:00:45;6.60;;;5.20;;
19189;SDS011;9727;50.200;19.038;2023-04-16T14:03:15;7.23;;;4.63;;
19189;SDS011;9727;50.200;19.038;2023-04-16T14:05:42;5.33;;;4.33;;
19189;SDS011;9727;50.200;19.038;2023-04-16T14:08:09;4.60;;;3.67;;
19189;SDS011;9727;50.200;19.038;2023-04-16T14:10:51;6.40;;;4.63;;
19189;SDS011;9727;50.200;19.038;2023-04-16T14:13:21;6.43;;;5.10;;
19189;SDS011;9727;50.200;19.038;2023-04-16T14:15:48;7.00;;;4.80;;
19189;SDS011;9727;50.200;19.038;2023-04-16T14:18:14;7.03;;;5.43;;
19189;SDS011;9727;50.200;19.038;2023-04-16T14:20:42;6.10;;;5.03;;
19189;SDS011;9727;50.200;19.038;2023-04-16T14:23:09;6.97;;;4.07;;
19189;SDS011;9727;50.200;19.038;2023-04-16T14:25:36;6.37;;;5.23;;
19189;SDS011;9727;50.200;19.038;2023-04-16T14:28:04;7.47;;;5.40;;
19189;SDS011;9727;50.200;19.038;2023-04-16T14:30:31;7.50;;;5.10;;
19189;SDS011;9727;50.200;19.038;2023-04-16T14:32:58;5.33;;;4.83;;
19189;SDS011;9727;50.200;19.038;2023-04-16T14:35:24;5.43;;;4.60;;
19189;SDS011;9727;50.200;19.038;2023-04-16T14:37:51;5.67;;;4.50;;
19189;SDS011;9727;50.200;19.038;2023-04-16T14:40:22;4.80;;;3.63;;